createdAt,value
2023-05-04T00:01:05.705Z,11.68
2023-05-04T00:03:39.563Z,15.73
2023-05-04T00:06:31.956Z,16.92
2023-05-04T00:09:01.388Z,12.02
2023-05-04T00:11:34.036Z,11.88
2023-05-04T00:14:07.940Z,11.85
2023-05-04T00:16:39.976Z,12.90
2023-05-04T00:19:12.451Z,10.60
2023-05-04T00:21:44.325Z,11.68
2023-05-04T00:24:20.210Z,12.57
2023-05-04T00:26:49.978Z,14.15
2023-05-04T00:29:24.942Z,10.68
2023-05-04T00:32:00.430Z,10.13
2023-05-04T00:34:35.089Z,14.15
2023-05-04T00:37:07.194Z,11.75
2023-05-04T00:39:39.102Z,12.55
2023-05-04T00:42:11.118Z,12.88
2023-05-04T00:44:45.256Z,10.60
2023-05-04T00:47:20.311Z,10.85
2023-05-04T00:49:53.904Z,11.77
2023-05-04T00:52:25.855Z,13.05
2023-05-04T00:54:56.891Z,11.05
2023-05-04T00:57:28.588Z,11.00
2023-05-04T00:59:59.091Z,10.10
2023-05-04T01:02:28.886Z,13.00
2023-05-04T01:04:58.278Z,10.95
2023-05-04T01:07:35.907Z,12.25
2023-05-04T01:10:13.382Z,10.73
2023-05-04T01:12:56.935Z,12.23
2023-05-04T01:15:27.953Z,10.30
2023-05-04T01:18:02.990Z,13.40
2023-05-04T01:20:35.438Z,10.93
2023-05-04T01:23:04.970Z,10.63
2023-05-04T01:25:48.465Z,14.38
2023-05-04T01:28:37.719Z,9.82
2023-05-04T01:31:17.895Z,11.80
2023-05-04T01:33:53.745Z,9.65
2023-05-04T01:36:26.964Z,10.00
2023-05-04T01:39:04.080Z,10.57
2023-05-04T01:41:38.439Z,12.48
2023-05-04T01:44:11.107Z,12.60
2023-05-04T01:51:45.653Z,14.63
2023-05-04T01:54:15.487Z,14.82
2023-05-04T01:56:52.937Z,15.60
2023-05-04T01:59:22.206Z,12.75
2023-05-04T02:01:56.511Z,9.13
2023-05-04T02:04:29.144Z,11.35
2023-05-04T02:07:05.490Z,10.02
2023-05-04T02:09:35.815Z,11.32
2023-05-04T02:12:05.588Z,11.02
2023-05-04T02:14:35.216Z,10.70
2023-05-04T02:17:08.116Z,9.38
2023-05-04T02:19:47.963Z,8.63
2023-05-04T02:22:21.033Z,9.70
2023-05-04T02:24:57.263Z,10.52
2023-05-04T02:27:26.898Z,10.27
2023-05-04T02:30:05.266Z,10.15
2023-05-04T02:32:35.085Z,9.77
2023-05-04T02:35:07.269Z,12.63
2023-05-04T02:37:39.170Z,10.40
2023-05-04T02:40:13.359Z,9.80
2023-05-04T02:42:43.064Z,11.15
2023-05-04T02:45:17.269Z,13.52
2023-05-04T02:47:46.794Z,12.57
2023-05-04T02:50:19.440Z,9.80
2023-05-04T02:52:51.028Z,9.60
2023-05-04T02:55:22.954Z,12.32
2023-05-04T02:57:58.065Z,10.63
2023-05-04T03:00:34.844Z,11.70
2023-05-04T03:03:04.485Z,11.27
2023-05-04T03:05:41.844Z,9.52
2023-05-04T03:08:15.503Z,8.43
2023-05-04T03:10:49.753Z,9.15
2023-05-04T03:13:19.254Z,9.05
2023-05-04T03:15:49.090Z,10.57
2023-05-04T03:18:26.517Z,13.48
2023-05-04T03:20:59.049Z,10.20
2023-05-04T03:23:30.857Z,11.50
2023-05-04T03:26:08.202Z,9.88
2023-05-04T03:28:38.593Z,10.75
2023-05-04T03:31:08.734Z,11.50
2023-05-04T03:33:42.843Z,10.05
2023-05-04T03:36:12.606Z,10.00
2023-05-04T03:38:46.235Z,11.85
2023-05-04T03:41:16.055Z,10.93
2023-05-04T03:43:48.764Z,10.80
2023-05-04T03:46:22.285Z,16.70
2023-05-04T03:48:54.619Z,16.83
2023-05-04T03:51:29.652Z,15.25
2023-05-04T03:53:59.395Z,13.32
2023-05-04T03:56:31.741Z,15.77
2023-05-04T03:59:02.313Z,13.05
2023-05-04T04:01:36.056Z,11.38
2023-05-04T04:04:08.512Z,13.30
2023-05-04T04:06:48.073Z,13.35
2023-05-04T04:09:18.662Z,17.98
2023-05-04T04:11:49.082Z,14.10
2023-05-04T04:14:24.551Z,10.88
2023-05-04T04:16:58.068Z,11.95
2023-05-04T04:19:30.741Z,14.38
2023-05-04T04:24:30.534Z,10.82
2023-05-04T04:27:00.624Z,12.88
2023-05-04T04:29:31.305Z,13.48
2023-05-04T04:32:05.069Z,15.18
2023-05-04T04:34:40.476Z,15.52
2023-05-04T04:37:12.122Z,11.45
2023-05-04T04:39:49.983Z,10.43
2023-05-04T04:42:23.024Z,10.80
2023-05-04T04:44:53.130Z,13.25
2023-05-04T04:47:26.128Z,10.57
2023-05-04T04:49:58.056Z,11.02
2023-05-04T04:52:31.192Z,14.60
2023-05-04T04:55:09.582Z,15.23
2023-05-04T04:57:39.246Z,14.57
2023-05-04T05:00:12.218Z,10.25
2023-05-04T05:02:44.470Z,10.15
2023-05-04T05:05:16.650Z,11.27
2023-05-04T05:07:52.930Z,14.68
2023-05-04T05:10:23.434Z,11.93
2023-05-04T05:12:53.449Z,9.98
2023-05-04T05:15:29.397Z,12.45
2023-05-04T05:18:01.577Z,10.27
2023-05-04T05:20:31.385Z,9.32
2023-05-04T05:23:05.854Z,10.45
2023-05-04T05:25:39.229Z,12.27
2023-05-04T05:28:11.739Z,9.82
2023-05-04T05:30:50.108Z,14.27
2023-05-04T05:33:22.251Z,7.75
2023-05-04T05:35:57.862Z,7.35
2023-05-04T05:38:29.789Z,9.93
2023-05-04T05:41:01.708Z,6.35
2023-05-04T05:43:31.374Z,9.85
2023-05-04T05:46:03.777Z,7.57
2023-05-04T05:48:33.626Z,7.40
2023-05-04T05:51:10.387Z,8.20
2023-05-04T05:53:45.602Z,6.43
2023-05-04T05:56:19.861Z,8.55
2023-05-04T05:58:56.452Z,8.70
2023-05-04T06:01:31.752Z,7.93
2023-05-04T06:04:03.553Z,7.32
2023-05-04T06:06:33.119Z,9.38
2023-05-04T06:09:07.202Z,8.45
2023-05-04T06:11:39.665Z,7.80
2023-05-04T06:14:09.377Z,9.70
2023-05-04T06:16:41.933Z,7.65
2023-05-04T06:19:16.227Z,10.00
2023-05-04T06:21:49.093Z,7.70
2023-05-04T06:24:18.700Z,6.43
2023-05-04T06:26:55.593Z,9.75
2023-05-04T06:29:26.027Z,13.48
2023-05-04T06:31:57.453Z,8.43
2023-05-04T06:34:26.966Z,8.02
2023-05-04T06:36:59.977Z,8.27
2023-05-04T06:42:02.141Z,7.05
2023-05-04T06:44:38.555Z,9.50
2023-05-04T06:47:13.184Z,9.43
2023-05-04T06:49:42.826Z,8.20
2023-05-04T06:52:12.852Z,9.38
2023-05-04T06:54:51.939Z,7.30
2023-05-04T06:57:23.030Z,7.57
2023-05-04T06:59:54.245Z,8.10
2023-05-04T07:02:28.967Z,8.43
2023-05-04T07:04:59.154Z,10.80
2023-05-04T07:07:36.699Z,9.48
2023-05-04T07:10:07.001Z,7.95
2023-05-04T07:12:42.977Z,8.88
2023-05-04T07:15:20.786Z,7.68
2023-05-04T07:17:56.335Z,9.85
2023-05-04T07:20:29.233Z,7.88
2023-05-04T07:22:59.825Z,6.72
2023-05-04T07:25:32.721Z,7.65
2023-05-04T07:28:04.595Z,9.10
2023-05-04T07:30:34.226Z,8.48
2023-05-04T07:33:06.824Z,8.45
2023-05-04T07:35:36.251Z,7.47
2023-05-04T07:38:11.279Z,8.82
2023-05-04T07:40:46.218Z,8.60
2023-05-04T07:43:20.456Z,7.57
2023-05-04T07:45:50.960Z,6.63
2023-05-04T07:48:26.181Z,8.07
2023-05-04T07:51:06.046Z,9.30
2023-05-04T07:53:35.665Z,7.15
2023-05-04T07:56:12.250Z,8.13
2023-05-04T07:58:44.523Z,7.28
2023-05-04T08:01:19.121Z,7.30
2023-05-04T08:03:52.419Z,6.15
2023-05-04T08:06:27.402Z,7.10
2023-05-04T08:09:03.009Z,7.63
2023-05-04T08:11:38.328Z,7.78
2023-05-04T08:14:10.408Z,6.05
2023-05-04T08:16:43.082Z,8.25
2023-05-04T08:21:45.519Z,5.90
2023-05-04T08:24:15.469Z,5.88
2023-05-04T08:27:03.769Z,6.32
2023-05-04T08:29:38.503Z,8.68
2023-05-04T08:32:18.411Z,7.38
2023-05-04T08:34:54.067Z,6.28
2023-05-04T08:37:25.901Z,10.88
2023-05-04T08:40:01.020Z,7.25
2023-05-04T08:42:33.913Z,6.68
2023-05-04T08:45:07.790Z,6.90
2023-05-04T08:47:44.053Z,6.72
2023-05-04T08:50:15.757Z,7.70
2023-05-04T08:52:48.163Z,8.18
2023-05-04T08:55:21.045Z,9.45
2023-05-04T08:57:54.626Z,5.82
2023-05-04T09:00:27.867Z,6.13
2023-05-04T09:03:00.810Z,11.05
2023-05-04T09:05:36.894Z,6.93
2023-05-04T09:08:08.745Z,9.20
2023-05-04T09:10:39.376Z,6.57
2023-05-04T09:13:18.676Z,5.95
2023-05-04T09:16:04.530Z,8.80
2023-05-04T09:18:41.604Z,7.28
2023-05-04T09:21:29.000Z,7.85
2023-05-04T09:24:03.769Z,6.10
2023-05-04T09:26:39.811Z,8.10
2023-05-04T09:29:17.586Z,7.70
2023-05-04T09:31:53.490Z,7.32
2023-05-04T09:34:27.070Z,7.45
2023-05-04T09:37:03.422Z,9.88
2023-05-04T09:39:38.271Z,6.88
2023-05-04T09:42:19.542Z,7.50
2023-05-04T09:45:06.429Z,7.65
2023-05-04T09:47:45.225Z,7.53
2023-05-04T09:50:25.779Z,6.95
2023-05-04T09:52:56.796Z,10.63
2023-05-04T09:55:33.160Z,7.72
2023-05-04T09:58:06.433Z,11.43
2023-05-04T10:00:48.918Z,8.73
2023-05-04T10:03:27.364Z,7.70
2023-05-04T10:06:01.629Z,6.28
2023-05-04T10:08:36.750Z,6.03
2023-05-04T10:13:43.440Z,7.10
2023-05-04T10:16:44.053Z,9.30
2023-05-04T10:19:35.175Z,7.88
2023-05-04T10:22:31.589Z,6.85
2023-05-04T10:25:07.925Z,6.45
2023-05-04T10:27:58.637Z,6.90
2023-05-04T10:30:28.959Z,6.55
2023-05-04T10:32:59.831Z,6.28
2023-05-04T10:35:34.533Z,5.75
2023-05-04T10:38:04.877Z,7.15
2023-05-04T10:40:43.023Z,6.35
2023-05-04T10:43:24.666Z,7.00
2023-05-04T10:45:58.033Z,7.25
2023-05-04T10:48:37.103Z,6.95
2023-05-04T10:51:23.621Z,9.13
2023-05-04T10:54:04.060Z,6.10
2023-05-04T10:56:34.084Z,5.90
2023-05-04T10:59:18.089Z,7.40
2023-05-04T11:01:51.313Z,5.15
2023-05-04T11:04:27.061Z,5.82
2023-05-04T11:07:09.183Z,5.93
2023-05-04T11:09:44.783Z,6.80
2023-05-04T11:12:20.218Z,7.00
2023-05-04T11:14:52.679Z,7.32
2023-05-04T11:17:28.217Z,6.78
2023-05-04T11:19:58.830Z,5.80
2023-05-04T11:22:32.672Z,6.05
2023-05-04T11:25:09.088Z,6.63
2023-05-04T11:27:44.864Z,5.63
2023-05-04T11:30:15.084Z,6.60
2023-05-04T11:32:47.944Z,6.47
2023-05-04T11:37:51.564Z,6.47
2023-05-04T11:42:58.215Z,6.60
2023-05-04T11:45:38.849Z,5.32
2023-05-04T11:48:17.987Z,6.32
2023-05-04T11:50:48.583Z,5.78
2023-05-04T11:53:22.013Z,4.90
2023-05-04T11:55:54.920Z,4.63
2023-05-04T11:58:27.156Z,6.28
2023-05-04T12:00:57.746Z,6.43
2023-05-04T12:03:36.024Z,3.58
2023-05-04T12:06:18.539Z,4.68
2023-05-04T12:09:08.217Z,4.32
2023-05-04T12:11:41.592Z,3.97
2023-05-04T12:14:32.081Z,6.03
2023-05-04T12:17:04.038Z,5.45
2023-05-04T12:19:37.100Z,6.65
2023-05-04T12:22:07.260Z,6.85
2023-05-04T12:24:37.601Z,3.88
2023-05-04T12:27:14.902Z,4.72
2023-05-04T12:29:52.404Z,4.43
2023-05-04T12:32:29.918Z,3.95
2023-05-04T12:35:05.772Z,6.60
2023-05-04T12:37:41.509Z,5.97
2023-05-04T12:40:28.299Z,6.30
2023-05-04T12:43:00.046Z,4.30
2023-05-04T12:45:31.109Z,3.92
2023-05-04T12:48:04.467Z,5.53
2023-05-04T12:50:35.569Z,4.93
2023-05-04T12:53:08.467Z,6.45
2023-05-04T12:55:45.481Z,6.57
2023-05-04T13:00:58.376Z,3.67
2023-05-04T13:03:34.492Z,4.13
2023-05-04T13:06:12.621Z,3.85
2023-05-04T13:08:53.181Z,3.03
2023-05-04T13:11:22.756Z,4.78
2023-05-04T13:13:55.840Z,3.83
2023-05-04T13:16:27.384Z,4.50
2023-05-04T13:18:59.763Z,4.72
2023-05-04T13:21:29.491Z,3.47
2023-05-04T13:24:02.894Z,4.57
2023-05-04T13:26:34.982Z,4.65
2023-05-04T13:29:05.979Z,2.78
2023-05-04T13:31:38.247Z,5.13
2023-05-04T13:34:22.630Z,4.45
2023-05-04T13:36:55.377Z,4.03
2023-05-04T13:39:29.177Z,3.70
2023-05-04T13:41:59.111Z,3.70
2023-05-04T13:44:35.324Z,6.03
2023-05-04T13:47:09.521Z,6.40
2023-05-04T13:49:39.948Z,5.63
2023-05-04T13:52:11.986Z,4.43
2023-05-04T13:54:42.775Z,5.55
2023-05-04T13:57:12.643Z,7.07
2023-05-04T13:59:54.898Z,4.75
2023-05-04T14:02:46.015Z,6.68
2023-05-04T14:05:23.934Z,4.65
2023-05-04T14:07:55.740Z,4.80
2023-05-04T14:10:28.578Z,5.15
2023-05-04T14:12:58.760Z,5.43
2023-05-04T14:15:32.582Z,9.48
2023-05-04T14:18:08.304Z,6.65
2023-05-04T14:20:41.909Z,7.43
2023-05-04T14:23:14.120Z,4.45
2023-05-04T14:25:50.729Z,6.78
2023-05-04T14:28:22.157Z,7.13
2023-05-04T14:30:56.713Z,6.63
2023-05-04T14:33:29.529Z,5.88
2023-05-04T14:36:08.755Z,9.68
2023-05-04T14:38:38.440Z,7.60
2023-05-04T14:41:10.641Z,6.43
2023-05-04T14:43:53.103Z,5.55
2023-05-04T14:46:28.250Z,7.15
2023-05-04T14:49:04.214Z,7.28
2023-05-04T14:51:36.000Z,8.30
2023-05-04T14:54:15.092Z,6.95
2023-05-04T14:56:51.257Z,6.22
2023-05-04T14:59:24.169Z,6.57
2023-05-04T15:01:55.776Z,6.15
2023-05-04T15:04:31.610Z,5.75
2023-05-04T15:07:01.579Z,5.25
2023-05-04T15:09:34.389Z,5.45
2023-05-04T15:12:13.068Z,6.93
2023-05-04T15:14:47.434Z,6.20
2023-05-04T15:17:20.162Z,5.50
2023-05-04T15:19:54.352Z,4.55
2023-05-04T15:22:24.027Z,6.45
2023-05-04T15:24:58.226Z,6.82
2023-05-04T15:27:31.649Z,7.85
2023-05-04T15:30:04.252Z,8.93
2023-05-04T15:32:38.172Z,8.65
2023-05-04T15:35:10.560Z,6.85
2023-05-04T15:37:40.550Z,5.38
2023-05-04T15:40:16.290Z,7.18
2023-05-04T15:42:58.940Z,7.22
2023-05-04T15:45:32.578Z,5.65
2023-05-04T15:48:02.337Z,5.65
2023-05-04T15:53:04.435Z,6.22
2023-05-04T15:55:39.108Z,4.57
2023-05-04T15:58:16.544Z,3.55
2023-05-04T16:00:46.574Z,4.65
2023-05-04T16:03:16.656Z,5.90
2023-05-04T16:05:51.261Z,5.57
2023-05-04T16:08:27.293Z,8.60
2023-05-04T16:10:59.500Z,7.03
2023-05-04T16:13:37.181Z,8.15
2023-05-04T16:16:07.756Z,7.95
2023-05-04T16:18:39.781Z,7.30
2023-05-04T16:21:14.620Z,6.68
2023-05-04T16:23:55.650Z,8.93
2023-05-04T16:26:32.599Z,8.45
2023-05-04T16:29:07.017Z,10.13
2023-05-04T16:31:37.799Z,7.68
2023-05-04T16:34:08.148Z,7.72
2023-05-04T16:36:40.700Z,6.88
2023-05-04T16:39:16.887Z,8.60
2023-05-04T16:41:49.104Z,6.80
2023-05-04T16:44:22.170Z,8.15
2023-05-04T16:46:54.962Z,6.18
2023-05-04T16:49:27.305Z,9.13
2023-05-04T16:51:59.313Z,5.97
2023-05-04T16:54:32.584Z,6.43
2023-05-04T16:57:05.468Z,8.75
2023-05-04T16:59:37.551Z,7.05
2023-05-04T17:02:12.345Z,5.57
2023-05-04T17:04:49.349Z,8.77
2023-05-04T17:07:19.601Z,7.00
2023-05-04T17:09:56.628Z,9.68
2023-05-04T17:12:31.671Z,20.52
2023-05-04T17:15:01.500Z,14.57
2023-05-04T17:17:34.108Z,9.23
2023-05-04T17:20:09.867Z,9.88
2023-05-04T17:22:43.791Z,8.02
2023-05-04T17:25:19.680Z,9.05
2023-05-04T17:27:54.428Z,9.93
2023-05-04T17:30:26.922Z,9.55
2023-05-04T17:33:00.252Z,7.68
2023-05-04T17:35:32.344Z,9.80
2023-05-04T17:38:04.422Z,11.25
2023-05-04T17:40:42.786Z,12.70
2023-05-04T17:43:18.357Z,25.65
2023-05-04T17:45:54.973Z,13.40
2023-05-04T17:48:32.247Z,9.90
2023-05-04T17:51:11.533Z,11.75
2023-05-04T17:53:44.408Z,7.82
2023-05-04T17:56:17.396Z,11.05
2023-05-04T17:58:48.104Z,13.00
2023-05-04T18:01:21.359Z,14.63
2023-05-04T18:04:04.599Z,19.73
2023-05-04T18:06:37.030Z,21.92
2023-05-04T18:09:07.574Z,17.55
2023-05-04T18:11:39.545Z,18.13
2023-05-04T18:14:12.459Z,14.65
2023-05-04T18:19:28.973Z,13.23
2023-05-04T18:22:02.876Z,9.80
2023-05-04T18:24:35.710Z,12.95
2023-05-04T18:29:37.497Z,8.98
2023-05-04T18:32:09.472Z,8.85
2023-05-04T18:34:52.196Z,9.20
2023-05-04T18:37:31.177Z,11.93
2023-05-04T18:40:02.614Z,10.93
2023-05-04T18:42:37.433Z,11.30
2023-05-04T18:45:12.800Z,9.88
2023-05-04T18:47:44.857Z,9.43
2023-05-04T18:50:15.232Z,9.20
2023-05-04T18:52:48.092Z,12.85
2023-05-04T18:55:24.021Z,11.90
2023-05-04T18:58:04.448Z,12.50
2023-05-04T19:00:39.603Z,13.55
2023-05-04T19:03:12.107Z,9.75
2023-05-04T19:05:41.767Z,10.65
2023-05-04T19:08:13.421Z,12.38
2023-05-04T19:10:47.470Z,7.95
2023-05-04T19:13:21.276Z,12.20
2023-05-04T19:15:54.274Z,9.57
2023-05-04T19:18:26.032Z,10.38
2023-05-04T19:20:57.909Z,8.02
2023-05-04T19:25:58.818Z,8.90
2023-05-04T19:28:28.487Z,9.57
2023-05-04T19:31:01.088Z,11.20
2023-05-04T19:33:44.580Z,10.85
2023-05-04T19:36:21.245Z,12.18
2023-05-04T19:38:51.597Z,11.00
2023-05-04T19:41:21.197Z,8.43
2023-05-04T19:43:58.679Z,10.13
2023-05-04T19:46:32.559Z,11.90
2023-05-04T19:49:02.046Z,13.68
2023-05-04T19:54:12.545Z,27.13
2023-05-04T19:56:50.493Z,11.93
2023-05-04T19:59:25.519Z,12.95
2023-05-04T20:01:58.713Z,15.98
2023-05-04T20:04:31.124Z,15.98
2023-05-04T20:07:00.922Z,14.32
2023-05-04T20:09:35.141Z,16.55
2023-05-04T20:12:08.731Z,18.77
2023-05-04T20:14:38.822Z,15.75
2023-05-04T20:17:11.260Z,12.20
2023-05-04T20:19:43.572Z,12.30
2023-05-04T20:22:15.711Z,11.55
2023-05-04T20:24:50.062Z,14.05
2023-05-04T20:27:24.231Z,13.70
2023-05-04T20:29:54.445Z,11.80
2023-05-04T20:32:27.980Z,10.35
2023-05-04T20:34:57.496Z,10.73
2023-05-04T20:37:27.554Z,15.48
2023-05-04T20:39:59.189Z,16.15
2023-05-04T20:42:31.553Z,10.68
2023-05-04T20:45:03.598Z,10.45
2023-05-04T20:47:37.382Z,12.02
2023-05-04T20:50:12.265Z,10.75
2023-05-04T20:52:41.755Z,9.27
2023-05-04T20:55:11.691Z,10.02
2023-05-04T20:57:45.528Z,10.10
2023-05-04T21:00:15.682Z,9.65
2023-05-04T21:02:48.845Z,9.85
2023-05-04T21:05:18.473Z,16.95
2023-05-04T21:07:52.948Z,18.00
2023-05-04T21:10:27.315Z,11.52
2023-05-04T21:12:59.252Z,13.13
2023-05-04T21:15:28.647Z,12.73
2023-05-04T21:17:58.401Z,8.90
2023-05-04T21:20:30.039Z,11.25
2023-05-04T21:23:01.672Z,10.35
2023-05-04T21:25:34.181Z,9.40
2023-05-04T21:28:08.006Z,10.65
2023-05-04T21:30:41.101Z,11.20
2023-05-04T21:33:17.274Z,10.30
2023-05-04T21:35:54.838Z,10.57
2023-05-04T21:38:25.214Z,11.10
2023-05-04T21:40:54.566Z,9.98
2023-05-04T21:43:27.675Z,12.40
2023-05-04T21:45:57.347Z,13.40
2023-05-04T21:48:28.726Z,12.82
2023-05-04T21:50:58.045Z,12.43
2023-05-04T21:53:36.425Z,11.93
2023-05-04T21:56:13.106Z,8.90
2023-05-04T21:58:47.394Z,10.23
2023-05-04T22:01:20.537Z,11.38
2023-05-04T22:03:50.216Z,10.43
2023-05-04T22:06:22.094Z,9.63
2023-05-04T22:08:53.968Z,8.80
2023-05-04T22:11:25.115Z,8.73
2023-05-04T22:13:56.964Z,8.35
2023-05-04T22:16:28.783Z,9.55
2023-05-04T22:19:01.185Z,9.38
2023-05-04T22:21:35.140Z,6.55
2023-05-04T22:24:05.144Z,7.10
2023-05-04T22:26:37.700Z,6.43
2023-05-04T22:31:42.080Z,9.35
2023-05-04T22:34:16.320Z,9.38
2023-05-04T22:36:53.256Z,7.20
2023-05-04T22:39:23.029Z,7.47
2023-05-04T22:41:55.308Z,6.65
2023-05-04T22:44:24.742Z,6.43
2023-05-04T22:46:57.427Z,6.13
2023-05-04T22:51:58.474Z,8.27
2023-05-04T22:54:31.055Z,9.88
2023-05-04T22:57:04.130Z,8.15
2023-05-04T22:59:34.764Z,7.07
2023-05-04T23:02:07.731Z,6.50
2023-05-04T23:04:40.509Z,6.85
2023-05-04T23:07:12.539Z,5.50
2023-05-04T23:09:50.783Z,8.48
2023-05-04T23:12:23.460Z,7.72
2023-05-04T23:14:53.899Z,8.85
2023-05-04T23:17:25.790Z,8.00
2023-05-04T23:19:55.302Z,8.60
2023-05-04T23:22:27.422Z,7.85
2023-05-04T23:24:56.727Z,8.07
2023-05-04T23:27:30.715Z,8.70
2023-05-04T23:30:02.430Z,9.48
2023-05-04T23:35:06.978Z,7.55
2023-05-04T23:37:36.644Z,8.68
2023-05-04T23:40:15.105Z,8.52
2023-05-04T23:42:51.367Z,6.70
2023-05-04T23:45:23.432Z,8.00
2023-05-04T23:47:58.126Z,8.52
2023-05-04T23:50:30.146Z,7.28
2023-05-04T23:53:01.907Z,6.93
2023-05-04T23:55:33.122Z,7.85
2023-05-04T23:58:03.043Z,9.70
